Time;durP1;ratioP1;P1;durP2;ratioP2;P2;SDS_P1;SDS_P2;PMS_P1;PMS_P2;Temp;Humidity;BMP_temperature;BMP_pressure;BME280_temperature;BME280_humidity;BME280_pressure;Samples;Min_cycle;Max_cycle;Signal;HPM_P1;HPM_P2
2022/11/20 00:04:01;;;;;;;212.40;99.10;;;;;;;-6.76;77.29;98318.41;420293;1297;109037;-40
2022/11/20 00:14:10;;;;;;;189.10;85.50;;;;;;;-6.77;77.43;98307.80;420314;1301;99446;-41
2022/11/20 00:24:18;;;;;;;231.00;103.00;;;;;;;-6.77;77.56;98309.91;420248;1300;109445;-41
2022/11/20 00:34:24;;;;;;;213.10;95.70;;;;;;;-6.81;77.68;98300.97;420096;1302;98859;-39
2022/11/20 00:44:32;;;;;;;183.90;85.70;;;;;;;-6.85;77.85;98298.04;420276;1298;110920;-41
2022/11/20 00:54:39;;;;;;;180.60;87.20;;;;;;;-6.81;78.01;98293.27;420248;1298;108804;-41
2022/11/20 01:04:47;;;;;;;171.90;82.60;;;;;;;-6.77;77.95;98287.74;420364;1302;99284;-42
2022/11/20 01:14:54;;;;;;;173.40;83.80;;;;;;;-6.77;78.12;98277.88;420316;1297;107645;-40
2022/11/20 01:25:01;;;;;;;160.80;78.60;;;;;;;-6.76;78.29;98275.92;420333;1292;98435;-40
2022/11/20 01:35:06;;;;;;;164.50;80.30;;;;;;;-6.82;78.23;98274.29;420305;1293;111346;-40
2022/11/20 01:45:43;;;;;;;181.90;90.00;;;;;;;-6.86;78.45;98265.37;420407;1302;108774;-40
2022/11/20 01:55:54;;;;;;;190.60;87.30;;;;;;;-6.91;78.58;98266.13;420378;1301;101605;-41
2022/11/20 02:06:04;;;;;;;196.20;93.20;;;;;;;-7.00;78.66;98253.88;420353;1300;106586;-40
2022/11/20 02:16:10;;;;;;;192.90;91.20;;;;;;;-7.02;78.66;98255.77;421646;1266;98965;-40
2022/11/20 02:26:20;;;;;;;213.70;103.40;;;;;;;-7.00;78.76;98248.94;420743;1276;111649;-41
2022/11/20 02:36:31;;;;;;;200.00;99.50;;;;;;;-7.03;78.69;98248.89;420497;1295;108612;-41
2022/11/20 02:46:39;;;;;;;196.40;96.10;;;;;;;-7.10;78.67;98256.61;420809;1292;99175;-41
2022/11/20 02:56:46;;;;;;;192.90;87.90;;;;;;;-7.22;78.64;98254.39;420765;1299;107992;-41
2022/11/20 03:06:54;;;;;;;169.60;85.90;;;;;;;-7.39;78.89;98262.13;420633;1295;99294;-40
2022/11/20 03:17:02;;;;;;;145.00;72.60;;;;;;;-7.47;79.12;98261.73;420533;1297;109980;-40
2022/11/20 03:27:10;;;;;;;178.40;81.50;;;;;;;-7.47;79.32;98261.58;420665;1292;109344;-40
2022/11/20 03:37:17;;;;;;;174.80;82.10;;;;;;;-7.55;79.28;98255.84;420570;1297;98617;-40
2022/11/20 03:47:24;;;;;;;183.30;82.80;;;;;;;-7.58;79.69;98257.02;420699;1285;110719;-40
2022/11/20 03:57:31;;;;;;;170.70;82.40;;;;;;;-7.54;79.71;98252.58;420617;1292;98094;-40
2022/11/20 04:07:38;;;;;;;167.20;79.70;;;;;;;-7.50;79.82;98243.68;420619;1299;111837;-41
2022/11/20 04:17:45;;;;;;;159.20;78.70;;;;;;;-7.39;80.00;98243.63;420510;1295;108080;-41
2022/11/20 04:27:52;;;;;;;136.40;71.10;;;;;;;-7.32;79.82;98251.94;420826;1292;99240;-41
2022/11/20 04:37:59;;;;;;;145.80;74.10;;;;;;;-7.42;79.65;98254.35;420765;1283;109081;-41
2022/11/20 04:48:04;;;;;;;143.40;68.60;;;;;;;-7.47;79.85;98254.38;420513;1291;98282;-40
2022/11/20 04:58:11;;;;;;;143.00;72.40;;;;;;;-7.48;79.83;98247.42;420523;1291;110058;-41
2022/11/20 05:08:17;;;;;;;138.80;73.90;;;;;;;-7.52;79.72;98235.14;420583;1295;107838;-40
2022/11/20 05:18:25;;;;;;;144.30;71.40;;;;;;;-7.57;79.79;98222.36;420566;1298;98833;-41
2022/11/20 05:28:33;;;;;;;134.20;69.60;;;;;;;-7.60;79.84;98217.27;420647;1291;107564;-41
2022/11/20 05:38:40;;;;;;;136.90;69.60;;;;;;;-7.69;79.72;98210.15;420546;1295;99243;-40
2022/11/20 05:48:48;;;;;;;137.00;70.00;;;;;;;-7.66;79.85;98210.27;420695;1292;111361;-39
2022/11/20 05:58:56;;;;;;;110.20;52.50;;;;;;;-7.64;79.87;98209.88;420721;1298;108168;-40
2022/11/20 06:09:04;;;;;;;131.70;68.20;;;;;;;-7.56;79.98;98203.98;420688;1291;98078;-40
2022/11/20 06:19:11;;;;;;;144.70;70.10;;;;;;;-7.50;80.01;98208.73;420580;1298;107161;-41
2022/11/20 06:29:18;;;;;;;137.70;71.60;;;;;;;-7.49;79.97;98204.71;420502;1292;98119;-41
2022/11/20 06:39:25;;;;;;;137.30;70.20;;;;;;;-7.35;80.01;98204.94;420702;1292;109937;-41
2022/11/20 06:59:39;;;;;;;128.80;65.30;;;;;;;-6.89;79.90;98207.42;420812;1298;99221;-41
2022/11/20 07:09:44;;;;;;;147.40;77.10;;;;;;;-6.34;80.34;98200.88;420559;1298;108043;-40
2022/11/20 07:19:52;;;;;;;142.80;79.50;;;;;;;-5.68;80.47;98190.87;420739;1284;99291;-41
2022/11/20 07:29:59;;;;;;;162.10;80.60;;;;;;;-4.25;81.02;98179.91;420724;1298;113058;-40
2022/11/20 07:40:07;;;;;;;186.30;86.70;;;;;;;-2.62;81.10;98164.53;420816;1290;107285;-41
2022/11/20 07:50:15;;;;;;;179.90;86.50;;;;;;;-1.84;80.28;98147.69;420785;1298;98968;-40
2022/11/20 08:00:20;;;;;;;177.90;85.50;;;;;;;-1.17;80.17;98146.89;420882;1299;111238;-41
2022/11/20 08:10:27;;;;;;;193.20;90.70;;;;;;;-0.72;79.92;98139.48;420617;1292;99217;-41
2022/11/20 08:20:36;;;;;;;168.60;81.30;;;;;;;-0.47;79.66;98135.52;420746;1297;99243;-39
2022/11/20 08:30:44;;;;;;;186.00;88.10;;;;;;;-0.76;78.85;98143.52;420842;1298;110604;-41
2022/11/20 08:51:13;;;;;;;225.50;99.50;;;;;;;-1.79;78.43;98144.65;420702;1292;99221;-40
2022/11/20 09:01:21;;;;;;;198.80;89.80;;;;;;;-1.81;78.33;98146.71;420667;1284;110979;-41
2022/11/20 09:11:29;;;;;;;185.60;85.50;;;;;;;-1.88;78.29;98147.27;420790;1290;106917;-40
2022/11/20 09:21:37;;;;;;;184.40;82.00;;;;;;;-1.90;78.25;98138.71;420757;1292;98866;-39
2022/11/20 09:31:44;;;;;;;107.50;54.90;;;;;;;-1.78;77.79;98127.05;420628;1299;106798;-41
2022/11/20 09:42:19;;;;;;;135.10;61.60;;;;;;;-1.52;77.82;98120.14;420656;1295;98052;-40
2022/11/20 09:52:42;;;;;;;128.70;61.10;;;;;;;-1.23;77.77;98106.70;420823;1299;111433;-41
2022/11/20 10:02:51;;;;;;;136.20;62.20;;;;;;;-1.00;77.63;98096.88;420844;1297;110052;-40
2022/11/20 10:13:01;;;;;;;118.00;56.20;;;;;;;-0.76;77.73;98086.87;420779;1295;99205;-40
2022/11/20 10:23:12;;;;;;;99.40;47.90;;;;;;;-0.46;77.33;98075.13;420999;1298;111826;-41
2022/11/20 10:33:22;;;;;;;76.80;41.80;;;;;;;-0.35;76.66;98076.22;420890;1299;108851;-39
2022/11/20 10:43:33;;;;;;;97.00;47.30;;;;;;;-0.15;76.21;98073.46;420756;1292;98831;-40
2022/11/20 10:53:42;;;;;;;76.00;37.90;;;;;;;0.07;76.39;98073.17;420936;1297;112236;-40
2022/11/20 11:03:50;;;;;;;73.00;37.60;;;;;;;0.30;76.49;98063.23;420854;1298;107566;-41
2022/11/20 11:14:05;;;;;;;74.10;37.10;;;;;;;0.42;75.91;98052.64;420710;1293;381915;-40
2022/11/20 11:24:20;;;;;;;76.30;34.80;;;;;;;0.33;75.16;98047.64;420907;1299;112042;-44
2022/11/20 11:34:59;;;;;;;74.50;37.30;;;;;;;0.41;75.15;98026.09;420950;1298;107330;-41
2022/11/20 11:45:06;;;;;;;75.40;37.40;;;;;;;0.51;74.44;98016.57;420961;1298;99338;-41
2022/11/20 11:55:20;;;;;;;77.20;37.40;;;;;;;0.56;74.35;98009.93;420905;1299;112383;-41
2022/11/20 12:05:28;;;;;;;84.30;42.90;;;;;;;0.61;74.43;97995.59;420899;1305;108603;-41
2022/11/20 12:15:36;;;;;;;81.80;41.20;;;;;;;0.63;74.54;97979.20;420834;1299;99236;-42
2022/11/20 12:25:44;;;;;;;64.40;34.20;;;;;;;0.69;73.76;97973.14;420780;1295;106202;-41
2022/11/20 12:35:56;;;;;;;99.10;48.30;;;;;;;0.76;74.09;97965.63;420916;1291;99174;-41
2022/11/20 12:46:10;;;;;;;98.60;49.70;;;;;;;0.76;74.27;97949.41;420948;1298;111311;-40
2022/11/20 12:56:18;;;;;;;101.50;48.70;;;;;;;0.72;74.27;97944.72;420773;1298;108184;-41
2022/11/20 13:06:27;;;;;;;87.20;40.10;;;;;;;0.66;74.55;97923.14;421032;1298;99220;-41
2022/11/20 13:16:37;;;;;;;83.10;38.80;;;;;;;0.65;74.68;97918.65;420694;1290;110793;-40
2022/11/20 13:26:43;;;;;;;73.90;35.00;;;;;;;0.62;74.86;97911.74;420933;1298;107042;-39
2022/11/20 13:36:55;;;;;;;53.40;29.30;;;;;;;0.67;74.91;97909.79;420833;1291;99271;-40
2022/11/20 13:47:02;;;;;;;62.90;33.30;;;;;;;0.68;75.10;97902.70;420933;1298;111737;-40
2022/11/20 13:57:11;;;;;;;81.40;40.40;;;;;;;0.59;75.31;97891.50;420765;1291;108705;-40
2022/11/20 14:07:18;;;;;;;96.60;46.10;;;;;;;0.43;75.48;97889.91;420706;1298;98604;-41
2022/11/20 14:17:31;;;;;;;111.10;51.00;;;;;;;0.28;75.81;97887.00;420973;1298;112358;-40
2022/11/20 14:27:39;;;;;;;114.00;56.00;;;;;;;0.01;75.84;97892.38;420940;1289;108138;-40
2022/11/20 14:37:47;;;;;;;116.40;57.30;;;;;;;-0.32;75.94;97883.02;421002;1298;97986;-41
2022/11/20 14:47:55;;;;;;;111.00;50.70;;;;;;;-0.64;76.36;97880.19;420932;1294;112135;-40
2022/11/20 14:58:00;;;;;;;82.80;44.50;;;;;;;-0.87;76.28;97880.96;420901;1284;107674;-40
2022/11/20 15:08:12;;;;;;;101.10;45.60;;;;;;;-1.03;76.42;97861.65;421173;1291;98975;-40
2022/11/20 15:18:20;;;;;;;147.80;67.00;;;;;;;-1.14;76.72;97846.98;421024;1288;110975;-41
2022/11/20 15:28:31;;;;;;;173.90;73.60;;;;;;;-1.37;76.75;97842.23;420868;1292;109367;-41
2022/11/20 15:38:39;;;;;;;184.40;81.10;;;;;;;-1.66;77.03;97831.67;420881;1290;99223;-44
2022/11/20 15:48:52;;;;;;;175.50;80.20;;;;;;;-1.90;77.32;97832.23;420773;1298;112299;-40
2022/11/20 15:58:59;;;;;;;165.00;74.40;;;;;;;-2.14;77.53;97830.63;420838;1298;108418;-41
2022/11/20 16:09:06;;;;;;;194.20;86.20;;;;;;;-2.33;77.86;97828.61;420875;1291;99258;-39
2022/11/20 16:19:13;;;;;;;212.70;88.70;;;;;;;-2.52;78.03;97828.38;420755;1291;107227;-41
2022/11/20 16:29:20;;;;;;;183.30;92.50;;;;;;;-2.59;78.12;97832.09;420752;1299;99294;-40
2022/11/20 16:39:27;;;;;;;191.40;95.50;;;;;;;-2.54;78.39;97836.40;420878;1298;110713;-41
2022/11/20 16:49:34;;;;;;;182.40;85.50;;;;;;;-2.45;78.63;97836.23;420676;1292;108432;-40
2022/11/20 17:19:55;;;;;;;218.00;95.20;;;;;;;-1.78;79.17;97814.31;420752;1298;99249;-39
2022/11/20 17:30:02;;;;;;;205.00;87.90;;;;;;;-1.70;79.54;97813.92;420753;1298;98530;-42
2022/11/20 17:40:08;;;;;;;201.10;85.80;;;;;;;-1.61;79.73;97802.06;420808;1298;112247;-40
2022/11/20 17:50:16;;;;;;;147.40;72.40;;;;;;;-1.48;79.80;97793.70;420793;1298;106995;-41
2022/11/20 18:00:23;;;;;;;131.30;64.80;;;;;;;-1.31;79.93;97785.48;420838;1292;97968;-41
2022/11/20 18:10:29;;;;;;;114.20;55.60;;;;;;;-1.14;80.14;97780.45;420820;1292;107961;-40
2022/11/20 18:20:36;;;;;;;92.60;45.40;;;;;;;-0.99;80.56;97762.75;420823;1291;99244;-39
2022/11/20 18:30:46;;;;;;;132.40;53.50;;;;;;;-0.93;80.63;97759.79;420995;1298;111880;-40
2022/11/20 18:40:53;;;;;;;162.10;67.40;;;;;;;-0.97;80.68;97765.59;420684;1298;109472;-41
2022/11/20 18:51:05;;;;;;;154.30;63.70;;;;;;;-1.12;80.54;97773.84;420825;1291;98010;-43
2022/11/20 19:01:12;;;;;;;135.50;57.30;;;;;;;-1.43;80.29;97783.74;420952;1292;110945;-38
2022/11/20 19:11:19;;;;;;;144.60;59.10;;;;;;;-1.71;80.50;97797.13;420829;1291;107793;-40
2022/11/20 19:21:27;;;;;;;85.30;39.40;;;;;;;-1.85;80.61;97802.02;420725;1299;99236;-39
2022/11/20 19:31:34;;;;;;;72.40;36.90;;;;;;;-1.86;80.65;97798.95;420804;1295;112680;-42
2022/11/20 19:41:42;;;;;;;64.60;29.30;;;;;;;-1.82;81.03;97800.80;420717;1298;107728;-41
2022/11/20 19:51:50;;;;;;;63.70;29.90;;;;;;;-1.85;81.00;97795.13;420602;1293;98022;-41
2022/11/20 20:01:58;;;;;;;94.10;43.00;;;;;;;-1.94;81.11;97792.05;420758;1295;106857;-41
2022/11/20 20:12:06;;;;;;;107.40;44.70;;;;;;;-2.13;81.02;97810.42;420739;1291;97973;-39
2022/11/20 20:22:13;;;;;;;121.50;49.70;;;;;;;-2.23;81.56;97803.64;420730;1298;111190;-39
2022/11/20 20:32:21;;;;;;;98.50;43.20;;;;;;;-2.24;81.75;97799.43;420702;1298;107393;-40
2022/11/20 20:42:29;;;;;;;112.30;46.30;;;;;;;-2.27;81.62;97799.25;420776;1298;98854;-40
2022/11/20 20:52:38;;;;;;;100.30;51.10;;;;;;;-2.30;81.70;97794.09;420627;1298;112222;-40
2022/11/20 21:02:45;;;;;;;74.00;37.30;;;;;;;-2.32;81.30;97800.31;420701;1298;106413;-40
2022/11/20 21:22:58;;;;;;;51.80;24.90;;;;;;;-2.13;81.62;97799.90;420852;1298;108329;-40
2022/11/20 21:33:05;;;;;;;52.70;24.70;;;;;;;-1.98;82.08;97813.13;420808;1291;98419;-39
2022/11/20 21:43:13;;;;;;;53.90;27.00;;;;;;;-1.82;82.19;97819.30;420704;1291;112075;-40
2022/11/20 21:53:20;;;;;;;69.70;30.10;;;;;;;-1.70;81.93;97840.08;420684;1290;108350;-38
2022/11/20 22:03:27;;;;;;;76.60;30.60;;;;;;;-1.74;82.01;97859.80;420556;1292;99158;-41
2022/11/20 22:24:00;;;;;;;91.50;39.50;;;;;;;-1.76;82.08;97855.89;420608;1291;108227;-39
2022/11/20 22:34:09;;;;;;;73.30;33.90;;;;;;;-1.78;82.01;97851.11;420714;1283;98028;-39
2022/11/20 22:54:22;;;;;;;40.50;20.70;;;;;;;-1.60;81.87;97836.85;420799;1291;108407;-40
2022/11/20 23:04:30;;;;;;;53.80;24.60;;;;;;;-1.43;81.97;97842.48;420728;1298;98403;-40
2022/11/20 23:14:37;;;;;;;68.80;29.10;;;;;;;-1.38;81.92;97836.26;420437;1299;447065;-40
2022/11/20 23:24:44;;;;;;;56.40;26.80;;;;;;;-1.58;81.57;97838.12;420775;1295;98652;-41
2022/11/20 23:34:52;;;;;;;63.40;29.20;;;;;;;-1.97;81.24;97834.17;420688;1299;111006;-41
2022/11/20 23:44:58;;;;;;;72.60;32.40;;;;;;;-2.30;81.46;97832.91;420848;1291;107564;-39
2022/11/20 23:55:06;;;;;;;83.90;35.60;;;;;;;-2.63;81.47;97830.43;420820;1292;99978;-39
